createdAt,value
2022-12-01T00:01:07.933Z,2.81
2022-12-01T00:03:35.183Z,2.97
2022-12-01T00:06:12.466Z,2.81
2022-12-01T00:08:39.230Z,2.65
2022-12-01T00:11:09.264Z,2.91
2022-12-01T00:13:38.650Z,2.79
2022-12-01T00:16:15.907Z,2.76
2022-12-01T00:18:43.065Z,2.82
2022-12-01T00:21:21.285Z,2.80
2022-12-01T00:23:50.049Z,2.84
2022-12-01T00:26:18.384Z,2.88
2022-12-01T00:28:48.984Z,2.91
2022-12-01T00:31:15.661Z,3.09
2022-12-01T00:33:42.226Z,2.99
2022-12-01T00:36:09.147Z,2.98
2022-12-01T00:38:35.704Z,3.07
2022-12-01T00:41:03.045Z,2.97
2022-12-01T00:43:29.743Z,2.95
2022-12-01T00:45:56.711Z,2.98
2022-12-01T00:48:23.849Z,2.97
2022-12-01T00:50:55.130Z,3.00
2022-12-01T00:53:22.244Z,2.96
2022-12-01T00:55:48.972Z,3.00
2022-12-01T00:58:15.560Z,2.90
2022-12-01T01:00:43.040Z,2.93
2022-12-01T01:03:10.447Z,2.91
2022-12-01T01:05:38.926Z,2.87
2022-12-01T01:08:10.480Z,2.89
2022-12-01T01:10:44.980Z,2.99
2022-12-01T01:13:13.077Z,3.04
2022-12-01T01:15:40.159Z,2.95
2022-12-01T01:18:07.210Z,2.97
2022-12-01T01:20:33.874Z,2.90
2022-12-01T01:23:00.476Z,2.88
2022-12-01T01:25:27.044Z,2.81
2022-12-01T01:27:53.597Z,2.79
2022-12-01T01:30:23.046Z,2.85
2022-12-01T01:32:49.588Z,2.80
2022-12-01T01:35:18.429Z,2.95
2022-12-01T01:37:45.008Z,3.02
2022-12-01T01:40:11.918Z,2.98
2022-12-01T01:42:38.476Z,3.00
2022-12-01T01:45:17.222Z,2.97
2022-12-01T01:47:44.400Z,3.02
2022-12-01T01:50:14.824Z,3.07
2022-12-01T01:53:01.664Z,3.13
2022-12-01T01:55:31.659Z,3.08
2022-12-01T01:57:58.486Z,3.07
2022-12-01T02:00:25.132Z,3.15
2022-12-01T02:02:53.297Z,3.07
2022-12-01T02:05:27.667Z,3.01
2022-12-01T02:07:56.782Z,3.16
2022-12-01T02:10:45.278Z,3.15
2022-12-01T02:13:29.260Z,3.19
2022-12-01T02:16:14.443Z,3.11
2022-12-01T02:18:56.618Z,3.14
2022-12-01T02:21:32.144Z,3.35
2022-12-01T02:24:26.520Z,3.18
2022-12-01T02:27:02.603Z,3.21
2022-12-01T02:29:38.368Z,3.10
2022-12-01T02:32:23.651Z,3.07
2022-12-01T02:35:09.771Z,3.09
2022-12-01T02:37:54.939Z,3.18
2022-12-01T02:40:30.064Z,3.18
2022-12-01T02:43:03.256Z,3.12
2022-12-01T02:45:56.337Z,3.05
2022-12-01T02:48:29.632Z,3.06
2022-12-01T02:51:01.234Z,3.08
2022-12-01T02:53:27.943Z,3.11
2022-12-01T02:55:57.969Z,3.19
2022-12-01T02:58:24.862Z,3.18
2022-12-01T03:01:28.501Z,3.19
2022-12-01T03:04:22.466Z,3.07
2022-12-01T03:07:12.878Z,2.99
2022-12-01T03:10:16.182Z,3.00
2022-12-01T03:13:18.656Z,3.14
2022-12-01T03:16:07.056Z,3.04
2022-12-01T03:18:51.754Z,3.00
2022-12-01T03:21:33.638Z,3.04
2022-12-01T03:24:06.320Z,2.92
2022-12-01T03:26:35.333Z,2.95
2022-12-01T03:29:07.656Z,3.03
2022-12-01T03:31:40.723Z,2.90
2022-12-01T03:34:15.449Z,2.97
2022-12-01T03:36:50.093Z,2.95
2022-12-01T03:39:23.304Z,2.94
2022-12-01T03:42:45.622Z,3.03
2022-12-01T03:45:17.963Z,2.98
2022-12-01T03:47:45.004Z,2.96
2022-12-01T03:50:15.447Z,2.97
2022-12-01T03:53:14.419Z,2.90
2022-12-01T03:55:44.301Z,2.87
2022-12-01T03:58:22.761Z,2.88
2022-12-01T04:00:57.653Z,2.91
2022-12-01T04:03:26.352Z,2.98
2022-12-01T04:05:58.020Z,3.07
2022-12-01T04:08:25.272Z,2.98
2022-12-01T04:10:52.049Z,2.95
2022-12-01T04:13:27.061Z,3.08
2022-12-01T04:15:54.767Z,3.08
2022-12-01T04:18:22.054Z,3.12
2022-12-01T04:20:49.930Z,3.14
2022-12-01T04:23:35.462Z,3.08
2022-12-01T04:26:05.133Z,2.96
2022-12-01T04:28:34.061Z,2.93
2022-12-01T04:31:00.645Z,3.07
2022-12-01T04:33:32.039Z,3.19
2022-12-01T04:35:59.893Z,3.12
2022-12-01T04:38:30.652Z,3.19
2022-12-01T04:40:57.975Z,3.26
2022-12-01T04:43:24.666Z,3.17
2022-12-01T04:45:51.220Z,3.02
2022-12-01T04:48:17.744Z,3.01
2022-12-01T04:50:44.300Z,3.04
2022-12-01T04:53:10.817Z,3.01
2022-12-01T04:55:38.999Z,2.99
2022-12-01T04:58:06.076Z,2.94
2022-12-01T05:00:33.544Z,3.11
2022-12-01T05:03:01.026Z,3.12
2022-12-01T05:05:27.672Z,3.07
2022-12-01T05:07:54.261Z,3.09
2022-12-01T05:10:20.928Z,3.20
2022-12-01T05:12:47.569Z,3.20
2022-12-01T05:15:14.172Z,3.25
2022-12-01T05:17:40.692Z,3.20
2022-12-01T05:20:26.826Z,3.07
2022-12-01T05:23:05.311Z,3.25
2022-12-01T05:25:37.262Z,3.21
2022-12-01T05:28:05.238Z,3.13
2022-12-01T05:30:31.812Z,3.21
2022-12-01T05:32:58.330Z,3.19
2022-12-01T05:35:24.939Z,3.14
2022-12-01T05:37:51.458Z,3.11
2022-12-01T05:40:17.995Z,3.17
2022-12-01T05:42:44.600Z,3.14
2022-12-01T05:45:11.307Z,3.28
2022-12-01T05:47:37.748Z,3.18
2022-12-01T05:50:05.954Z,3.09
2022-12-01T05:52:35.822Z,3.02
2022-12-01T05:55:06.766Z,3.06
2022-12-01T05:57:33.792Z,3.13
2022-12-01T06:00:00.284Z,3.10
2022-12-01T06:02:26.930Z,3.10
2022-12-01T06:04:53.526Z,3.18
2022-12-01T06:07:21.074Z,3.16
2022-12-01T06:09:47.840Z,3.10
2022-12-01T06:12:14.624Z,3.05
2022-12-01T06:14:43.405Z,2.95
2022-12-01T06:17:10.505Z,2.98
2022-12-01T06:19:39.580Z,3.11
2022-12-01T06:22:06.080Z,3.12
2022-12-01T06:24:32.545Z,3.16
2022-12-01T06:26:59.098Z,3.07
2022-12-01T06:29:25.592Z,3.08
2022-12-01T06:31:52.230Z,3.09
2022-12-01T06:34:18.714Z,3.03
2022-12-01T06:36:45.176Z,3.07
2022-12-01T06:39:11.624Z,3.03
2022-12-01T06:41:38.421Z,3.09
2022-12-01T06:44:05.656Z,3.04
2022-12-01T06:46:32.246Z,3.03
2022-12-01T06:48:58.770Z,3.12
2022-12-01T06:51:25.228Z,3.06
2022-12-01T06:53:55.161Z,3.04
2022-12-01T06:56:23.004Z,3.09
2022-12-01T06:58:50.556Z,3.08
2022-12-01T07:01:18.296Z,3.09
2022-12-01T07:03:49.837Z,3.04
2022-12-01T07:06:17.210Z,3.05
2022-12-01T07:08:44.770Z,3.16
2022-12-01T07:11:13.624Z,3.13
2022-12-01T07:13:41.156Z,3.12
2022-12-01T07:16:09.485Z,3.14
2022-12-01T07:18:37.038Z,3.11
2022-12-01T07:21:05.816Z,3.17
2022-12-01T07:23:32.618Z,3.14
2022-12-01T07:26:11.765Z,3.13
2022-12-01T07:28:38.308Z,3.16
2022-12-01T07:31:09.282Z,3.23
2022-12-01T07:33:36.275Z,3.14
2022-12-01T07:36:04.161Z,3.17
2022-12-01T07:38:31.883Z,3.16
2022-12-01T07:41:05.153Z,3.21
2022-12-01T07:43:32.853Z,3.35
2022-12-01T07:46:10.985Z,3.27
2022-12-01T07:48:38.770Z,3.27
2022-12-01T07:51:06.897Z,3.53
2022-12-01T07:53:33.439Z,3.33
2022-12-01T07:56:03.123Z,3.22
2022-12-01T07:58:36.770Z,3.36
2022-12-01T08:01:15.152Z,3.50
2022-12-01T08:03:42.371Z,3.40
2022-12-01T08:06:10.236Z,3.53
2022-12-01T08:08:41.013Z,3.60
2022-12-01T08:11:17.753Z,3.55
2022-12-01T08:13:44.710Z,3.52
2022-12-01T08:16:16.397Z,3.52
2022-12-01T08:18:43.653Z,3.57
2022-12-01T08:21:15.910Z,3.56
2022-12-01T08:23:42.731Z,3.57
2022-12-01T08:26:13.080Z,3.62
2022-12-01T08:28:40.210Z,3.65
2022-12-01T08:31:10.934Z,3.70
2022-12-01T08:33:37.971Z,3.73
2022-12-01T08:36:05.796Z,3.72
2022-12-01T08:38:33.094Z,3.75
2022-12-01T08:41:03.990Z,3.77
2022-12-01T08:46:17.121Z,3.77
2022-12-01T08:48:43.743Z,3.81
2022-12-01T08:51:16.264Z,3.83
2022-12-01T08:53:48.104Z,3.80
2022-12-01T08:56:20.614Z,3.83
2022-12-01T08:58:47.401Z,3.88
2022-12-01T09:01:16.601Z,3.86
2022-12-01T09:03:43.639Z,3.93
2022-12-01T09:06:13.508Z,4.00
2022-12-01T09:08:40.263Z,3.89
2022-12-01T09:11:12.494Z,3.97
2022-12-01T09:13:40.069Z,3.97
2022-12-01T09:16:17.477Z,4.11
2022-12-01T09:18:45.913Z,4.01
2022-12-01T09:21:17.197Z,4.00
2022-12-01T09:23:44.148Z,3.98
2022-12-01T09:26:13.848Z,4.01
2022-12-01T09:28:40.914Z,4.10
2022-12-01T09:31:10.058Z,4.09
2022-12-01T09:33:36.925Z,4.11
2022-12-01T09:36:04.817Z,3.96
2022-12-01T09:38:33.113Z,3.93
2022-12-01T09:41:04.692Z,3.73
2022-12-01T09:43:40.375Z,3.85
2022-12-01T09:46:16.016Z,4.05
2022-12-01T09:48:47.410Z,4.12
2022-12-01T09:51:22.666Z,4.11
2022-12-01T09:53:52.039Z,4.04
2022-12-01T09:56:24.981Z,4.25
2022-12-01T09:59:05.994Z,4.28
2022-12-01T10:01:42.803Z,4.22
2022-12-01T10:04:17.899Z,4.25
2022-12-01T10:07:06.668Z,4.32
2022-12-01T10:09:36.850Z,4.18
2022-12-01T10:12:18.567Z,4.23
2022-12-01T10:14:47.550Z,4.25
2022-12-01T10:17:33.711Z,4.31
2022-12-01T10:20:10.582Z,4.24
2022-12-01T10:22:39.612Z,4.35
2022-12-01T10:25:17.484Z,4.53
2022-12-01T10:27:50.018Z,4.49
2022-12-01T10:30:19.728Z,4.41
2022-12-01T10:33:32.916Z,4.54
2022-12-01T10:35:59.456Z,4.43
2022-12-01T10:38:28.517Z,4.47
2022-12-01T10:40:58.535Z,4.74
2022-12-01T10:43:33.471Z,4.46
2022-12-01T10:46:05.533Z,4.47
2022-12-01T10:48:32.016Z,4.56
2022-12-01T10:51:16.285Z,4.62
2022-12-01T10:53:42.750Z,4.37
2022-12-01T10:56:21.409Z,4.38
2022-12-01T10:59:01.891Z,4.36
2022-12-01T11:01:35.801Z,4.34
2022-12-01T11:04:21.296Z,4.43
2022-12-01T11:06:51.465Z,4.38
2022-12-01T11:09:26.046Z,4.34
2022-12-01T11:11:58.837Z,4.44
2022-12-01T11:14:56.633Z,4.32
2022-12-01T11:17:30.804Z,4.54
2022-12-01T11:20:17.466Z,4.50
2022-12-01T11:22:43.958Z,4.68
2022-12-01T11:25:20.539Z,4.71
2022-12-01T11:27:54.203Z,4.73
2022-12-01T11:30:25.103Z,4.89
2022-12-01T11:33:03.091Z,4.88
2022-12-01T11:35:40.013Z,4.73
2022-12-01T11:38:29.429Z,4.68
2022-12-01T11:40:58.311Z,4.83
2022-12-01T11:43:24.766Z,4.65
2022-12-01T11:45:52.847Z,4.65
2022-12-01T11:48:31.467Z,4.80
2022-12-01T11:51:07.256Z,4.64
2022-12-01T11:53:39.401Z,4.73
2022-12-01T11:56:28.890Z,4.78
2022-12-01T11:59:01.802Z,4.92
2022-12-01T12:01:33.691Z,4.84
2022-12-01T12:04:13.634Z,4.68
2022-12-01T12:06:52.306Z,4.64
2022-12-01T12:09:40.298Z,4.60
2022-12-01T12:12:54.509Z,4.68
2022-12-01T12:15:39.100Z,4.66
2022-12-01T12:18:44.022Z,4.56
2022-12-01T12:21:32.976Z,4.52
2022-12-01T12:24:29.886Z,4.79
2022-12-01T12:27:24.490Z,4.63
2022-12-01T12:30:12.846Z,4.61
2022-12-01T12:32:57.501Z,4.51
2022-12-01T12:35:33.144Z,4.62
2022-12-01T12:38:21.668Z,4.49
2022-12-01T12:41:06.817Z,4.44
2022-12-01T12:43:44.167Z,4.63
2022-12-01T12:46:14.000Z,4.73
2022-12-01T12:52:16.132Z,4.64
2022-12-01T12:54:59.314Z,4.54
2022-12-01T12:57:29.033Z,4.50
2022-12-01T13:00:13.826Z,4.36
2022-12-01T13:02:53.105Z,4.47
2022-12-01T13:05:38.021Z,4.58
2022-12-01T13:08:30.766Z,4.53
2022-12-01T13:11:22.114Z,4.45
2022-12-01T13:13:48.528Z,4.45
2022-12-01T13:16:25.206Z,4.52
2022-12-01T13:18:56.326Z,4.50
2022-12-01T13:21:25.569Z,4.49
2022-12-01T13:23:52.743Z,4.71
2022-12-01T13:26:21.339Z,4.78
2022-12-01T13:28:56.159Z,4.74
2022-12-01T13:31:23.312Z,4.64
2022-12-01T13:34:01.898Z,4.61
2022-12-01T13:36:46.229Z,4.59
2022-12-01T13:39:26.527Z,4.55
2022-12-01T13:42:22.536Z,4.62
2022-12-01T13:44:58.470Z,4.75
2022-12-01T13:47:24.919Z,4.60
2022-12-01T13:49:53.086Z,4.66
2022-12-01T13:52:22.803Z,4.64
2022-12-01T13:55:07.808Z,4.67
2022-12-01T13:57:45.317Z,4.66
2022-12-01T14:00:24.264Z,4.64
2022-12-01T14:03:12.835Z,4.68
2022-12-01T14:05:42.359Z,4.87
2022-12-01T14:08:24.507Z,4.79
2022-12-01T14:10:58.375Z,4.85
2022-12-01T14:13:25.788Z,4.73
2022-12-01T14:15:58.716Z,4.65
2022-12-01T14:18:37.812Z,4.69
2022-12-01T14:21:09.403Z,4.67
2022-12-01T14:23:38.570Z,4.71
2022-12-01T14:26:20.512Z,4.71
2022-12-01T14:28:55.924Z,4.68
2022-12-01T14:31:24.005Z,4.84
2022-12-01T14:34:10.371Z,4.61
2022-12-01T14:36:41.594Z,4.60
2022-12-01T14:39:17.698Z,4.57
2022-12-01T14:41:51.030Z,4.55
2022-12-01T14:44:38.523Z,4.73
2022-12-01T14:47:17.932Z,4.70
2022-12-01T14:49:51.079Z,4.55
2022-12-01T14:52:28.969Z,4.52
2022-12-01T14:54:58.625Z,4.52
2022-12-01T14:57:32.048Z,4.63
2022-12-01T15:00:04.950Z,4.55
2022-12-01T15:02:32.438Z,4.62
2022-12-01T15:05:15.219Z,4.51
2022-12-01T15:07:50.908Z,4.46
2022-12-01T15:10:21.609Z,4.45
2022-12-01T15:12:49.804Z,4.49
2022-12-01T15:15:21.039Z,4.53
2022-12-01T15:17:50.383Z,4.45
2022-12-01T15:20:33.013Z,4.42
2022-12-01T15:23:01.767Z,4.45
2022-12-01T15:25:35.220Z,4.55
2022-12-01T15:28:19.736Z,4.59
2022-12-01T15:30:49.960Z,4.58
2022-12-01T15:33:27.018Z,4.50
2022-12-01T15:35:55.821Z,4.47
2022-12-01T15:38:27.269Z,4.56
2022-12-01T15:43:41.977Z,4.63
2022-12-01T15:46:13.513Z,4.57
2022-12-01T15:48:40.181Z,4.57
2022-12-01T15:51:20.567Z,4.53
2022-12-01T15:53:51.230Z,4.58
2022-12-01T15:56:26.184Z,4.44
2022-12-01T15:58:57.303Z,4.39
2022-12-01T16:01:31.876Z,4.45
2022-12-01T16:04:03.771Z,4.40
2022-12-01T16:06:33.598Z,4.39
2022-12-01T16:09:03.237Z,4.50
2022-12-01T16:11:30.670Z,4.45
2022-12-01T16:14:00.754Z,4.46
2022-12-01T16:16:47.113Z,4.38
2022-12-01T16:19:16.355Z,4.43
2022-12-01T16:21:49.312Z,4.48
2022-12-01T16:24:22.164Z,4.48
2022-12-01T16:27:07.633Z,4.46
2022-12-01T16:29:49.719Z,4.50
2022-12-01T16:32:21.111Z,4.50
2022-12-01T16:34:50.229Z,4.51
2022-12-01T16:37:17.208Z,4.47
2022-12-01T16:39:46.046Z,4.52
2022-12-01T16:42:17.566Z,4.56
2022-12-01T16:44:48.269Z,4.49
2022-12-01T16:47:21.350Z,4.49
2022-12-01T16:49:47.947Z,4.45
2022-12-01T16:55:01.115Z,4.38
2022-12-01T16:57:27.598Z,4.41
2022-12-01T16:59:54.153Z,4.44
2022-12-01T17:02:22.971Z,4.49
2022-12-01T17:04:49.779Z,4.43
2022-12-01T17:07:16.454Z,4.49
2022-12-01T17:09:50.480Z,4.50
2022-12-01T17:12:19.310Z,4.52
2022-12-01T17:14:46.034Z,4.48
2022-12-01T17:17:12.584Z,4.41
2022-12-01T17:19:39.024Z,4.36
2022-12-01T17:22:05.519Z,4.40
2022-12-01T17:24:32.036Z,4.35
2022-12-01T17:26:58.616Z,4.40
2022-12-01T17:29:26.301Z,4.30
2022-12-01T17:31:52.747Z,4.33
2022-12-01T17:34:19.198Z,4.47
2022-12-01T17:36:45.770Z,4.43
2022-12-01T17:39:12.374Z,4.39
2022-12-01T17:41:38.869Z,4.54
2022-12-01T17:44:05.629Z,4.40
2022-12-01T17:46:32.265Z,4.33
2022-12-01T17:48:59.305Z,4.35
2022-12-01T17:51:28.216Z,4.53
2022-12-01T17:53:54.878Z,4.44
2022-12-01T17:56:23.884Z,4.51
2022-12-01T17:58:52.776Z,4.48
2022-12-01T18:01:24.131Z,4.35
2022-12-01T18:03:53.629Z,4.45
2022-12-01T18:06:20.668Z,4.41
2022-12-01T18:08:47.361Z,4.33
2022-12-01T18:11:16.067Z,4.41
2022-12-01T18:13:45.246Z,4.38
2022-12-01T18:16:17.547Z,4.38
2022-12-01T18:18:47.045Z,4.40
2022-12-01T18:21:16.783Z,4.33
2022-12-01T18:23:52.699Z,4.24
2022-12-01T18:26:21.833Z,4.29
2022-12-01T18:28:56.977Z,4.30
2022-12-01T18:31:26.396Z,4.26
2022-12-01T18:33:53.092Z,4.36
2022-12-01T18:36:24.326Z,4.47
2022-12-01T18:38:52.229Z,4.41
2022-12-01T18:41:19.427Z,4.42
2022-12-01T18:43:49.446Z,4.35
2022-12-01T18:46:17.210Z,4.32
2022-12-01T18:48:49.622Z,4.31
2022-12-01T18:51:16.231Z,4.24
2022-12-01T18:53:43.393Z,4.27
2022-12-01T18:56:12.008Z,4.27
2022-12-01T18:58:39.550Z,4.29
2022-12-01T19:01:21.133Z,4.29
2022-12-01T19:03:50.579Z,4.32
2022-12-01T19:06:17.975Z,4.29
2022-12-01T19:08:47.101Z,4.30
2022-12-01T19:11:13.782Z,4.39
2022-12-01T19:13:40.248Z,4.42
2022-12-01T19:16:12.319Z,4.37
2022-12-01T19:18:39.613Z,4.32
2022-12-01T19:21:08.585Z,4.33
2022-12-01T19:23:37.902Z,4.29
2022-12-01T19:26:06.391Z,4.27
2022-12-01T19:28:33.878Z,4.30
2022-12-01T19:31:00.577Z,4.33
2022-12-01T19:33:28.278Z,4.36
2022-12-01T19:35:57.834Z,4.35
2022-12-01T19:38:24.259Z,4.25
2022-12-01T19:40:52.951Z,4.24
2022-12-01T19:43:19.398Z,4.25
2022-12-01T19:45:45.951Z,4.20
2022-12-01T19:48:12.478Z,4.20
2022-12-01T19:50:38.933Z,4.26
2022-12-01T19:53:05.451Z,4.24
2022-12-01T19:55:32.012Z,4.23
2022-12-01T19:57:58.584Z,4.25
2022-12-01T20:00:25.893Z,4.28
2022-12-01T20:02:52.527Z,4.26
2022-12-01T20:05:19.314Z,4.31
2022-12-01T20:07:45.926Z,4.22
2022-12-01T20:10:12.633Z,4.25
2022-12-01T20:12:39.161Z,4.20
2022-12-01T20:15:08.596Z,4.17
2022-12-01T20:17:36.618Z,4.22
2022-12-01T20:20:06.358Z,4.29
2022-12-01T20:22:33.625Z,4.29
2022-12-01T20:25:00.329Z,4.24
2022-12-01T20:27:30.038Z,4.24
2022-12-01T20:29:56.573Z,4.09
2022-12-01T20:32:26.096Z,4.27
2022-12-01T20:34:52.852Z,4.21
2022-12-01T20:37:19.565Z,4.18
2022-12-01T20:39:46.815Z,4.18
2022-12-01T20:42:13.317Z,4.23
2022-12-01T20:44:40.406Z,4.34
2022-12-01T20:47:06.997Z,4.30
2022-12-01T20:49:33.509Z,4.31
2022-12-01T20:51:59.949Z,4.33
2022-12-01T20:54:28.222Z,4.35
2022-12-01T20:56:58.104Z,4.37
2022-12-01T20:59:24.889Z,4.38
2022-12-01T21:01:51.349Z,4.30
2022-12-01T21:04:17.933Z,4.40
2022-12-01T21:06:44.662Z,4.28
2022-12-01T21:09:12.995Z,4.34
2022-12-01T21:12:05.897Z,4.33
2022-12-01T21:14:44.845Z,4.35
2022-12-01T21:17:37.509Z,4.38
2022-12-01T21:20:21.755Z,4.39
2022-12-01T21:22:50.038Z,4.37
2022-12-01T21:25:23.411Z,4.36
2022-12-01T21:27:52.683Z,4.33
2022-12-01T21:30:28.530Z,4.46
2022-12-01T21:33:00.458Z,4.46
2022-12-01T21:35:26.899Z,4.36
2022-12-01T21:38:04.464Z,4.28
2022-12-01T21:40:30.972Z,4.26
2022-12-01T21:43:11.177Z,4.30
2022-12-01T21:45:37.693Z,4.33
2022-12-01T21:48:16.355Z,4.28
2022-12-01T21:50:43.236Z,4.34
2022-12-01T21:53:18.970Z,4.33
2022-12-01T21:55:46.997Z,4.32
2022-12-01T21:58:28.986Z,4.29
2022-12-01T22:00:57.901Z,4.26
2022-12-01T22:03:39.527Z,4.30
2022-12-01T22:06:37.226Z,4.22
2022-12-01T22:09:24.342Z,4.24
2022-12-01T22:11:56.487Z,4.31
2022-12-01T22:14:32.083Z,4.35
2022-12-01T22:17:11.441Z,4.32
2022-12-01T22:19:42.271Z,4.30
2022-12-01T22:22:08.679Z,4.28
2022-12-01T22:24:40.333Z,4.26
2022-12-01T22:27:26.141Z,4.24
2022-12-01T22:30:16.279Z,4.30
2022-12-01T22:32:51.933Z,4.28
2022-12-01T22:35:21.491Z,4.34
2022-12-01T22:37:53.942Z,4.26
2022-12-01T22:40:26.616Z,4.44
2022-12-01T22:42:53.075Z,4.40
2022-12-01T22:45:26.996Z,4.33
2022-12-01T22:48:01.961Z,4.41
2022-12-01T22:50:30.994Z,4.49
2022-12-01T22:53:06.233Z,4.34
2022-12-01T22:55:32.680Z,4.35
2022-12-01T22:57:59.792Z,4.25
2022-12-01T23:00:28.515Z,4.15
2022-12-01T23:02:55.885Z,4.33
2022-12-01T23:05:30.586Z,4.18
2022-12-01T23:07:57.549Z,4.27
2022-12-01T23:10:28.666Z,4.27
2022-12-01T23:12:59.391Z,4.18
2022-12-01T23:15:37.374Z,4.18
2022-12-01T23:18:21.097Z,4.20
2022-12-01T23:20:53.035Z,4.12
2022-12-01T23:23:37.757Z,4.22
2022-12-01T23:26:07.330Z,4.27
2022-12-01T23:28:36.845Z,4.28
2022-12-01T23:31:05.754Z,4.23
2022-12-01T23:33:34.341Z,4.30
2022-12-01T23:36:24.642Z,4.27
2022-12-01T23:38:55.270Z,4.27
2022-12-01T23:41:32.879Z,4.23
2022-12-01T23:44:03.886Z,4.20
2022-12-01T23:46:32.818Z,4.20
2022-12-01T23:49:04.843Z,4.11
2022-12-01T23:51:35.315Z,4.20
2022-12-01T23:54:12.620Z,4.17
2022-12-01T23:56:39.200Z,4.21
2022-12-01T23:59:12.138Z,4.42
